createdAt,value
2019-03-13T00:00:46.074Z,5.58
2019-03-13T00:01:45.988Z,5.55
2019-03-13T00:02:46.024Z,5.55
2019-03-13T00:03:45.928Z,5.44
2019-03-13T00:04:45.905Z,5.48
2019-03-13T00:05:45.901Z,5.56
2019-03-13T00:06:45.905Z,5.45
2019-03-13T00:07:45.855Z,5.44
2019-03-13T00:08:45.868Z,5.45
2019-03-13T00:09:45.862Z,5.56
2019-03-13T00:10:45.869Z,5.47
2019-03-13T00:11:46.000Z,5.55
2019-03-13T00:12:45.799Z,5.48
2019-03-13T00:13:45.905Z,5.38
2019-03-13T00:14:45.790Z,5.29
2019-03-13T00:15:45.795Z,5.33
2019-03-13T00:16:45.776Z,5.27
2019-03-13T00:17:45.991Z,5.26
2019-03-13T00:18:45.800Z,5.35
2019-03-13T00:19:45.731Z,5.30
2019-03-13T00:20:45.739Z,5.22
2019-03-13T00:21:45.832Z,5.15
2019-03-13T00:22:45.716Z,5.22
2019-03-13T00:23:45.684Z,5.20
2019-03-13T00:24:45.701Z,5.11
2019-03-13T00:25:45.735Z,5.08
2019-03-13T00:26:45.707Z,5.14
2019-03-13T00:27:45.644Z,5.09
2019-03-13T00:28:45.629Z,5.06
2019-03-13T00:29:45.643Z,4.99
2019-03-13T00:30:45.660Z,4.91
2019-03-13T00:31:45.639Z,4.90
2019-03-13T00:32:45.677Z,4.84
2019-03-13T00:33:45.575Z,4.79
2019-03-13T00:34:45.573Z,4.83
2019-03-13T00:35:45.548Z,4.72
2019-03-13T00:36:45.699Z,4.71
2019-03-13T00:37:45.529Z,4.57
2019-03-13T00:38:45.517Z,4.59
2019-03-13T00:39:45.599Z,4.57
2019-03-13T00:40:45.516Z,4.46
2019-03-13T00:41:45.519Z,4.34
2019-03-13T00:42:45.475Z,4.43
2019-03-13T00:43:45.462Z,4.44
2019-03-13T00:44:45.485Z,4.44
2019-03-13T00:45:45.609Z,4.34
2019-03-13T00:46:45.479Z,4.28
2019-03-13T00:47:45.583Z,4.32
2019-03-13T00:48:45.500Z,4.21
2019-03-13T00:49:45.404Z,4.25
2019-03-13T00:50:45.386Z,4.26
2019-03-13T00:51:45.384Z,4.26
2019-03-13T00:52:45.401Z,4.16
2019-03-13T00:53:45.410Z,4.26
2019-03-13T00:54:45.546Z,4.26
2019-03-13T00:55:45.332Z,4.25
2019-03-13T00:56:45.430Z,4.28
2019-03-13T00:57:45.389Z,4.34
2019-03-13T00:58:45.338Z,4.26
2019-03-13T00:59:45.290Z,4.28
2019-03-13T01:00:45.425Z,4.29
2019-03-13T01:01:45.405Z,4.28
2019-03-13T01:02:45.301Z,4.28
2019-03-13T01:03:45.440Z,4.25
2019-03-13T01:04:45.298Z,4.36
2019-03-13T01:05:45.240Z,4.38
2019-03-13T01:06:45.262Z,4.36
2019-03-13T01:07:45.284Z,4.42
2019-03-13T01:08:45.241Z,4.46
2019-03-13T01:09:45.397Z,4.53
2019-03-13T01:10:45.327Z,4.62
2019-03-13T01:11:45.178Z,4.64
2019-03-13T01:12:45.154Z,4.64
2019-03-13T01:13:45.171Z,4.74
2019-03-13T01:14:45.155Z,4.57
2019-03-13T01:15:45.151Z,4.67
2019-03-13T01:16:45.171Z,4.69
2019-03-13T01:17:45.274Z,4.68
2019-03-13T01:18:45.117Z,4.68
2019-03-13T01:19:45.087Z,4.71
2019-03-13T01:20:45.086Z,4.62
2019-03-13T01:21:45.266Z,4.65
2019-03-13T01:22:45.060Z,4.75
2019-03-13T01:23:45.106Z,4.79
2019-03-13T01:24:45.084Z,4.71
2019-03-13T01:25:45.056Z,4.69
2019-03-13T01:26:45.244Z,4.68
2019-03-13T01:27:45.135Z,4.65
2019-03-13T01:28:45.012Z,4.68
2019-03-13T01:29:45.059Z,4.67
2019-03-13T01:30:45.022Z,4.64
2019-03-13T01:31:44.967Z,4.62
2019-03-13T01:32:45.006Z,4.71
2019-03-13T01:33:45.092Z,4.69
2019-03-13T01:34:44.983Z,4.67
2019-03-13T01:35:44.923Z,4.74
2019-03-13T01:36:44.926Z,4.79
2019-03-13T01:37:44.926Z,4.77
2019-03-13T01:38:45.038Z,4.71
2019-03-13T01:39:44.927Z,4.75
2019-03-13T01:40:44.966Z,4.79
2019-03-13T01:41:44.851Z,4.87
2019-03-13T01:42:44.917Z,4.84
2019-03-13T01:43:44.838Z,4.93
2019-03-13T01:44:45.018Z,4.93
2019-03-13T01:45:44.811Z,4.96
2019-03-13T01:46:44.803Z,4.99
2019-03-13T01:47:44.785Z,4.88
2019-03-13T01:48:44.809Z,4.94
2019-03-13T01:49:44.852Z,4.88
2019-03-13T01:50:44.766Z,4.86
2019-03-13T01:51:44.953Z,4.88
2019-03-13T01:52:44.755Z,4.96
2019-03-13T01:53:44.800Z,4.91
2019-03-13T01:54:44.737Z,4.87
2019-03-13T01:55:44.785Z,4.79
2019-03-13T01:56:44.694Z,4.83
2019-03-13T01:57:44.875Z,4.83
2019-03-13T01:58:44.688Z,4.97
2019-03-13T01:59:44.857Z,5.09
2019-03-13T02:00:44.706Z,5.04
2019-03-13T02:01:44.685Z,5.01
2019-03-13T02:02:44.887Z,5.02
2019-03-13T02:03:44.673Z,4.94
2019-03-13T02:04:44.646Z,4.99
2019-03-13T02:05:44.594Z,4.91
2019-03-13T02:06:44.811Z,4.96
2019-03-13T02:07:44.584Z,5.12
2019-03-13T02:08:44.655Z,5.06
2019-03-13T02:09:44.559Z,5.01
2019-03-13T02:10:44.707Z,5.11
2019-03-13T02:11:44.538Z,5.19
2019-03-13T02:12:44.522Z,5.11
2019-03-13T02:13:44.508Z,5.06
2019-03-13T02:14:44.535Z,5.04
2019-03-13T02:15:44.509Z,5.04
2019-03-13T02:16:44.508Z,4.97
2019-03-13T02:17:44.484Z,4.91
2019-03-13T02:18:44.513Z,4.94
2019-03-13T02:19:44.532Z,4.83
2019-03-13T02:20:44.521Z,4.84
2019-03-13T02:21:44.432Z,4.72
2019-03-13T02:22:44.461Z,4.67
2019-03-13T02:23:44.439Z,4.67
2019-03-13T02:24:44.398Z,4.61
2019-03-13T02:25:44.436Z,4.67
2019-03-13T02:26:44.390Z,4.69
2019-03-13T02:27:44.362Z,4.69
2019-03-13T02:28:44.348Z,4.62
2019-03-13T02:29:44.347Z,4.72
2019-03-13T02:30:44.419Z,4.72
2019-03-13T02:31:44.380Z,4.72
2019-03-13T02:32:44.326Z,4.72
2019-03-13T02:33:44.298Z,4.74
2019-03-13T02:34:44.415Z,4.75
2019-03-13T02:35:44.405Z,4.79
2019-03-13T02:36:44.336Z,4.79
2019-03-13T02:37:44.435Z,4.72
2019-03-13T02:38:44.280Z,4.64
2019-03-13T02:39:44.264Z,4.65
2019-03-13T02:40:44.225Z,4.61
2019-03-13T02:41:44.278Z,4.62
2019-03-13T02:42:44.243Z,4.59
2019-03-13T02:43:44.198Z,4.67
2019-03-13T02:44:44.186Z,4.61
2019-03-13T02:45:44.174Z,4.69
2019-03-13T02:46:44.327Z,4.72
2019-03-13T02:47:44.152Z,4.71
2019-03-13T02:48:44.142Z,4.84
2019-03-13T02:49:44.190Z,4.86
2019-03-13T02:50:44.219Z,4.88
2019-03-13T02:51:44.137Z,4.86
2019-03-13T02:52:44.141Z,4.75
2019-03-13T02:53:44.088Z,4.79
2019-03-13T02:54:44.087Z,4.83
2019-03-13T02:55:44.071Z,4.84
2019-03-13T02:56:44.101Z,4.83
2019-03-13T02:57:44.067Z,4.75
2019-03-13T02:58:44.336Z,4.71
2019-03-13T02:59:44.101Z,4.77
2019-03-13T03:00:44.122Z,4.74
2019-03-13T03:01:44.292Z,4.75
2019-03-13T03:02:44.002Z,4.68
2019-03-13T03:03:44.059Z,4.65
2019-03-13T03:04:44.010Z,4.67
2019-03-13T03:05:43.959Z,4.64
2019-03-13T03:06:43.993Z,4.65
2019-03-13T03:07:44.057Z,4.67
2019-03-13T03:08:43.987Z,4.71
2019-03-13T03:09:43.940Z,4.71
2019-03-13T03:10:43.922Z,4.54
2019-03-13T03:11:43.946Z,4.62
2019-03-13T03:12:43.960Z,4.61
2019-03-13T03:13:43.903Z,4.54
2019-03-13T03:14:43.879Z,4.61
2019-03-13T03:15:43.869Z,4.47
2019-03-13T03:16:44.041Z,4.44
2019-03-13T03:17:43.873Z,4.47
2019-03-13T03:18:44.004Z,4.50
2019-03-13T03:19:43.814Z,4.46
2019-03-13T03:20:43.948Z,4.49
2019-03-13T03:21:43.812Z,4.44
2019-03-13T03:22:43.839Z,4.44
2019-03-13T03:23:45.445Z,4.42
2019-03-13T03:24:43.851Z,4.39
2019-03-13T03:25:43.880Z,4.44
2019-03-13T03:26:43.749Z,4.34
2019-03-13T03:27:43.963Z,4.36
2019-03-13T03:28:43.721Z,4.31
2019-03-13T03:29:43.716Z,4.39
2019-03-13T03:30:43.716Z,4.39
2019-03-13T03:31:43.810Z,4.42
2019-03-13T03:32:43.780Z,4.38
2019-03-13T03:33:43.693Z,4.47
2019-03-13T03:34:43.685Z,4.36
2019-03-13T03:35:43.675Z,4.46
2019-03-13T03:36:43.644Z,4.44
2019-03-13T03:37:43.772Z,4.50
2019-03-13T03:38:43.624Z,4.51
2019-03-13T03:39:43.705Z,4.47
2019-03-13T03:40:43.715Z,4.51
2019-03-13T03:41:43.588Z,4.53
2019-03-13T03:42:43.582Z,4.47
2019-03-13T03:43:43.595Z,4.56
2019-03-13T03:44:43.597Z,4.42
2019-03-13T03:45:43.590Z,4.42
2019-03-13T03:46:43.585Z,4.42
2019-03-13T03:47:43.527Z,4.34
2019-03-13T03:48:43.593Z,4.34
2019-03-13T03:49:43.612Z,4.38
2019-03-13T03:50:43.505Z,4.36
2019-03-13T03:51:43.516Z,4.36
2019-03-13T03:52:43.486Z,4.43
2019-03-13T03:53:43.482Z,4.49
2019-03-13T03:54:43.525Z,4.49
2019-03-13T03:55:43.475Z,4.50
2019-03-13T03:56:43.549Z,4.57
2019-03-13T03:57:43.478Z,4.68
2019-03-13T03:58:43.465Z,4.64
2019-03-13T03:59:43.636Z,4.57
2019-03-13T04:00:43.399Z,4.61
2019-03-13T04:01:43.384Z,4.62
2019-03-13T04:02:43.425Z,4.57
2019-03-13T04:03:43.420Z,4.61
2019-03-13T04:04:43.385Z,4.61
2019-03-13T04:05:43.334Z,4.57
2019-03-13T04:06:43.340Z,4.61
2019-03-13T04:07:43.366Z,4.57
2019-03-13T04:08:43.529Z,4.62
2019-03-13T04:09:43.330Z,4.46
2019-03-13T04:10:43.283Z,4.64
2019-03-13T04:11:43.304Z,4.54
2019-03-13T04:12:43.274Z,4.47
2019-03-13T04:13:45.077Z,4.54
2019-03-13T04:14:43.392Z,4.51
2019-03-13T04:15:43.432Z,4.46
2019-03-13T04:16:43.222Z,4.47
2019-03-13T04:17:43.347Z,4.54
2019-03-13T04:18:43.351Z,4.65
2019-03-13T04:19:43.255Z,4.75
2019-03-13T04:20:43.204Z,4.80
2019-03-13T04:21:43.232Z,4.91
2019-03-13T04:22:43.164Z,4.91
2019-03-13T04:23:43.272Z,4.87
2019-03-13T04:24:43.138Z,4.87
2019-03-13T04:25:43.160Z,4.91
2019-03-13T04:26:43.126Z,5.01
2019-03-13T04:27:43.116Z,5.01
2019-03-13T04:28:43.316Z,5.02
2019-03-13T04:29:43.115Z,4.97
2019-03-13T04:30:43.167Z,4.97
2019-03-13T04:31:43.173Z,5.05
2019-03-13T04:32:43.138Z,4.91
2019-03-13T04:33:43.043Z,4.96
2019-03-13T04:34:43.038Z,4.94
2019-03-13T04:35:43.042Z,4.94
2019-03-13T04:36:43.041Z,4.91
2019-03-13T04:37:43.166Z,4.88
2019-03-13T04:38:43.090Z,4.90
2019-03-13T04:39:43.013Z,4.86
2019-03-13T04:40:42.969Z,4.71
2019-03-13T04:41:43.016Z,4.77
2019-03-13T04:42:42.949Z,4.72
2019-03-13T04:43:43.002Z,4.62
2019-03-13T04:44:43.076Z,4.61
2019-03-13T04:45:43.057Z,4.56
2019-03-13T04:46:43.119Z,4.62
2019-03-13T04:47:43.012Z,4.59
2019-03-13T04:48:42.937Z,4.53
2019-03-13T04:49:42.975Z,4.44
2019-03-13T04:50:42.870Z,4.50
2019-03-13T04:51:42.876Z,4.49
2019-03-13T04:52:42.900Z,4.44
2019-03-13T04:53:42.835Z,4.46
2019-03-13T04:54:42.983Z,4.56
2019-03-13T04:55:42.815Z,4.44
2019-03-13T04:56:42.832Z,4.53
2019-03-13T04:57:42.834Z,4.50
2019-03-13T04:58:42.918Z,4.44
2019-03-13T04:59:42.777Z,4.50
2019-03-13T05:00:42.768Z,4.50
2019-03-13T05:01:42.779Z,4.49
2019-03-13T05:02:42.765Z,4.53
2019-03-13T05:03:42.734Z,4.49
2019-03-13T05:04:42.718Z,4.65
2019-03-13T05:05:42.760Z,4.68
2019-03-13T05:06:42.709Z,4.79
2019-03-13T05:07:42.939Z,4.80
2019-03-13T05:08:45.342Z,4.86
2019-03-13T05:09:42.723Z,4.80
2019-03-13T05:10:42.698Z,4.84
2019-03-13T05:11:42.715Z,4.90
2019-03-13T05:12:42.749Z,4.91
2019-03-13T05:13:42.623Z,4.87
2019-03-13T05:14:42.622Z,4.87
2019-03-13T05:15:42.796Z,4.97
2019-03-13T05:16:42.594Z,4.93
2019-03-13T05:17:42.682Z,4.94
2019-03-13T05:18:42.585Z,5.02
2019-03-13T05:19:42.605Z,5.04
2019-03-13T05:20:42.665Z,5.15
2019-03-13T05:21:42.578Z,5.15
2019-03-13T05:22:42.542Z,5.22
2019-03-13T05:23:42.750Z,5.14
2019-03-13T05:24:42.525Z,5.08
2019-03-13T05:25:42.531Z,4.99
2019-03-13T05:26:42.620Z,4.96
2019-03-13T05:27:42.675Z,5.01
2019-03-13T05:28:42.520Z,4.94
2019-03-13T05:29:42.464Z,4.97
2019-03-13T05:30:42.459Z,4.94
2019-03-13T05:31:42.578Z,5.02
2019-03-13T05:32:42.426Z,4.96
2019-03-13T05:33:42.445Z,5.05
2019-03-13T05:34:42.421Z,4.97
2019-03-13T05:35:42.612Z,5.05
2019-03-13T05:36:42.401Z,5.05
2019-03-13T05:37:42.570Z,5.20
2019-03-13T05:38:42.424Z,5.24
2019-03-13T05:39:42.446Z,5.24
2019-03-13T05:40:42.544Z,5.30
2019-03-13T05:41:42.335Z,5.35
2019-03-13T05:42:42.337Z,5.45
2019-03-13T05:43:42.340Z,5.55
2019-03-13T05:44:42.344Z,5.47
2019-03-13T05:45:42.293Z,5.47
2019-03-13T05:46:42.282Z,5.45
2019-03-13T05:47:42.336Z,5.42
2019-03-13T05:48:42.271Z,5.45
2019-03-13T05:49:42.282Z,5.48
2019-03-13T05:50:42.317Z,5.47
2019-03-13T05:51:42.254Z,5.47
2019-03-13T05:52:42.250Z,5.47
2019-03-13T05:53:42.329Z,5.42
2019-03-13T05:54:42.231Z,5.44
2019-03-13T05:55:42.188Z,5.35
2019-03-13T05:56:42.212Z,5.40
2019-03-13T05:57:42.180Z,5.37
2019-03-13T05:58:42.179Z,5.35
2019-03-13T05:59:42.204Z,5.33
2019-03-13T06:00:42.135Z,5.35
2019-03-13T06:01:42.119Z,5.30
2019-03-13T06:02:42.176Z,5.35
2019-03-13T06:03:42.150Z,5.41
2019-03-13T06:04:42.098Z,5.45
2019-03-13T06:05:42.098Z,5.55
2019-03-13T06:06:42.071Z,5.56
2019-03-13T06:07:42.203Z,5.59
2019-03-13T06:08:42.080Z,5.63
2019-03-13T06:09:42.076Z,5.60
2019-03-13T06:10:42.060Z,5.66
2019-03-13T06:11:42.046Z,5.66
2019-03-13T06:12:42.030Z,5.60
2019-03-13T06:13:42.068Z,5.77
2019-03-13T06:14:41.976Z,5.83
2019-03-13T06:15:41.971Z,5.84
2019-03-13T06:16:42.037Z,5.83
2019-03-13T06:17:42.029Z,5.81
2019-03-13T06:18:41.974Z,5.78
2019-03-13T06:19:41.932Z,5.81
2019-03-13T06:20:41.944Z,5.75
2019-03-13T06:21:41.957Z,5.69
2019-03-13T06:22:41.930Z,5.67
2019-03-13T06:23:41.886Z,5.74
2019-03-13T06:24:41.879Z,5.80
2019-03-13T06:25:41.885Z,5.83
2019-03-13T06:26:41.886Z,5.85
2019-03-13T06:27:41.917Z,5.87
2019-03-13T06:28:41.854Z,5.96
2019-03-13T06:29:41.853Z,5.95
2019-03-13T06:30:41.803Z,5.90
2019-03-13T06:31:41.832Z,5.95
2019-03-13T06:32:41.890Z,5.96
2019-03-13T06:33:41.779Z,5.98
2019-03-13T06:34:41.768Z,5.96
2019-03-13T06:35:41.782Z,5.90
2019-03-13T06:36:41.771Z,5.90
2019-03-13T06:37:41.768Z,5.96
2019-03-13T06:38:41.726Z,5.88
2019-03-13T06:39:41.773Z,5.90
2019-03-13T06:40:41.698Z,5.88
2019-03-13T06:41:41.768Z,5.95
2019-03-13T06:42:41.759Z,5.95
2019-03-13T06:43:41.677Z,6.10
2019-03-13T06:44:41.660Z,6.08
2019-03-13T06:45:41.648Z,6.17
2019-03-13T06:46:41.702Z,6.21
2019-03-13T06:47:41.630Z,6.20
2019-03-13T06:48:41.611Z,6.21
2019-03-13T06:49:41.608Z,6.16
2019-03-13T06:50:41.641Z,6.20
2019-03-13T06:51:41.599Z,6.30
2019-03-13T06:52:41.611Z,6.51
2019-03-13T06:53:41.576Z,6.50
2019-03-13T06:54:41.555Z,6.53
2019-03-13T06:55:41.548Z,6.54
2019-03-13T06:56:41.554Z,6.54
2019-03-13T06:57:41.629Z,6.63
2019-03-13T06:58:41.604Z,6.57
2019-03-13T06:59:41.499Z,6.53
2019-03-13T07:00:41.559Z,6.60
2019-03-13T07:01:41.647Z,6.64
2019-03-13T07:02:41.490Z,6.63
2019-03-13T07:03:41.496Z,6.71
2019-03-13T07:04:41.450Z,6.82
2019-03-13T07:05:41.593Z,6.78
2019-03-13T07:06:41.437Z,6.82
2019-03-13T07:07:41.412Z,6.79
2019-03-13T07:08:41.437Z,6.76
2019-03-13T07:09:41.394Z,6.76
2019-03-13T07:10:41.387Z,6.81
2019-03-13T07:11:41.403Z,6.75
2019-03-13T07:12:41.362Z,6.83
2019-03-13T07:13:41.415Z,6.82
2019-03-13T07:14:41.357Z,6.81
2019-03-13T07:15:41.354Z,6.76
2019-03-13T07:16:41.315Z,6.93
2019-03-13T07:17:41.332Z,7.05
2019-03-13T07:18:41.312Z,6.96
2019-03-13T07:19:41.313Z,6.94
2019-03-13T07:20:41.274Z,7.04
2019-03-13T07:21:41.272Z,7.11
2019-03-13T07:22:41.257Z,7.18
2019-03-13T07:23:41.299Z,7.21
2019-03-13T07:24:41.274Z,7.19
2019-03-13T07:25:41.267Z,7.18
2019-03-13T07:26:41.214Z,7.16
2019-03-13T07:27:41.223Z,7.30
2019-03-13T07:28:41.189Z,7.29
2019-03-13T07:29:41.233Z,7.29
2019-03-13T07:30:41.180Z,7.09
2019-03-13T07:31:41.155Z,7.29
2019-03-13T07:32:41.176Z,7.21
2019-03-13T07:33:41.142Z,7.18
2019-03-13T07:34:43.640Z,7.16
2019-03-13T07:35:41.138Z,7.24
2019-03-13T07:36:41.117Z,7.15
2019-03-13T07:37:41.106Z,7.18
2019-03-13T07:38:41.145Z,7.16
2019-03-13T07:39:41.070Z,7.27
2019-03-13T07:40:41.099Z,7.15
2019-03-13T07:41:41.086Z,7.33
2019-03-13T07:42:41.081Z,7.24
2019-03-13T07:43:41.045Z,7.36
2019-03-13T07:44:41.104Z,7.42
2019-03-13T07:45:41.142Z,7.47
2019-03-13T07:46:40.996Z,7.48
2019-03-13T07:47:40.989Z,7.37
2019-03-13T07:48:41.003Z,7.39
2019-03-13T07:49:41.014Z,7.42
2019-03-13T07:50:40.984Z,7.37
2019-03-13T07:51:40.949Z,7.34
2019-03-13T07:52:41.016Z,7.30
2019-03-13T07:53:40.965Z,7.33
2019-03-13T07:54:40.920Z,7.29
2019-03-13T07:55:40.919Z,7.27
2019-03-13T07:56:40.951Z,7.23
2019-03-13T07:57:40.891Z,7.23
2019-03-13T07:58:43.930Z,7.24
2019-03-13T07:59:40.892Z,7.26
2019-03-13T08:00:40.881Z,7.27
2019-03-13T08:01:40.918Z,7.26
2019-03-13T08:02:40.973Z,7.30
2019-03-13T08:03:40.882Z,7.34
2019-03-13T08:04:40.828Z,7.45
2019-03-13T08:05:40.803Z,7.57
2019-03-13T08:06:40.853Z,7.66
2019-03-13T08:07:40.814Z,7.67
2019-03-13T08:08:40.812Z,7.67
2019-03-13T08:09:40.804Z,7.74
2019-03-13T08:10:40.737Z,7.52
2019-03-13T08:11:43.992Z,7.52
2019-03-13T08:12:40.740Z,7.58
2019-03-13T08:13:40.722Z,7.57
2019-03-13T08:14:40.696Z,7.57
2019-03-13T08:15:40.688Z,7.62
2019-03-13T08:16:40.675Z,7.67
2019-03-13T08:17:40.704Z,7.77
2019-03-13T08:18:40.739Z,7.82
2019-03-13T08:19:40.678Z,7.86
2019-03-13T08:20:40.736Z,7.89
2019-03-13T08:21:40.620Z,7.82
2019-03-13T08:22:40.641Z,7.85
2019-03-13T08:23:40.611Z,7.82
2019-03-13T08:24:40.598Z,7.86
2019-03-13T08:25:40.620Z,7.95
2019-03-13T08:26:40.619Z,7.94
2019-03-13T08:27:40.594Z,7.96
2019-03-13T08:28:40.549Z,7.92
2019-03-13T08:29:40.557Z,7.91
2019-03-13T08:30:40.529Z,7.85
2019-03-13T08:31:40.534Z,7.81
2019-03-13T08:32:40.503Z,7.73
2019-03-13T08:33:40.517Z,7.67
2019-03-13T08:34:40.540Z,7.63
2019-03-13T08:35:40.482Z,7.70
2019-03-13T08:36:41.145Z,7.84
2019-03-13T08:37:41.993Z,7.82
2019-03-13T08:38:40.507Z,7.86
2019-03-13T08:39:40.438Z,7.88
2019-03-13T08:40:40.521Z,7.85
2019-03-13T08:41:40.407Z,7.79
2019-03-13T08:42:40.397Z,7.66
2019-03-13T08:43:40.443Z,7.63
2019-03-13T08:44:40.386Z,7.70
2019-03-13T08:45:40.417Z,7.76
2019-03-13T08:46:40.362Z,7.69
2019-03-13T08:47:42.402Z,7.76
2019-03-13T08:48:40.409Z,7.89
2019-03-13T08:49:40.323Z,7.96
2019-03-13T08:50:40.311Z,8.02
2019-03-13T08:51:40.348Z,8.04
2019-03-13T08:52:40.298Z,8.03
2019-03-13T08:53:40.284Z,8.13
2019-03-13T08:54:40.301Z,8.13
2019-03-13T08:55:40.258Z,8.10
2019-03-13T08:56:40.263Z,8.10
2019-03-13T08:57:40.320Z,8.13
2019-03-13T08:58:40.281Z,8.07
2019-03-13T08:59:40.273Z,8.13
2019-03-13T09:00:40.208Z,8.12
2019-03-13T09:01:40.197Z,8.17
2019-03-13T09:02:40.194Z,8.25
2019-03-13T09:03:40.169Z,8.13
2019-03-13T09:04:41.992Z,8.31
2019-03-13T09:05:40.152Z,8.46
2019-03-13T09:06:40.152Z,8.55
2019-03-13T09:07:40.135Z,8.54
2019-03-13T09:08:40.325Z,8.47
2019-03-13T09:09:40.297Z,8.57
2019-03-13T09:10:40.106Z,8.58
2019-03-13T09:11:40.132Z,8.61
2019-03-13T09:12:40.073Z,8.57
2019-03-13T09:13:40.077Z,8.43
2019-03-13T09:14:40.057Z,8.42
2019-03-13T09:15:40.081Z,8.42
2019-03-13T09:16:40.043Z,8.47
2019-03-13T09:17:40.086Z,8.58
2019-03-13T09:18:40.024Z,8.64
2019-03-13T09:19:40.046Z,8.55
2019-03-13T09:20:39.989Z,8.52
2019-03-13T09:21:39.994Z,8.60
2019-03-13T09:22:39.979Z,8.60
2019-03-13T09:23:40.019Z,8.63
2019-03-13T09:24:39.989Z,8.60
2019-03-13T09:25:39.972Z,8.64
2019-03-13T09:26:39.937Z,8.49
2019-03-13T09:27:39.920Z,8.40
2019-03-13T09:28:39.904Z,8.22
2019-03-13T09:29:39.895Z,8.13
2019-03-13T09:30:39.947Z,8.12
2019-03-13T09:31:39.891Z,8.00
2019-03-13T09:32:39.891Z,8.04
2019-03-13T09:33:39.853Z,7.89
2019-03-13T09:34:39.836Z,7.95
2019-03-13T09:35:39.874Z,8.06
2019-03-13T09:36:39.819Z,8.04
2019-03-13T09:37:39.825Z,8.07
2019-03-13T09:38:39.853Z,8.02
2019-03-13T09:39:39.793Z,8.12
2019-03-13T09:40:39.801Z,8.07
2019-03-13T09:41:39.789Z,8.09
2019-03-13T09:42:39.851Z,7.96
2019-03-13T09:43:39.794Z,8.04
2019-03-13T09:44:39.749Z,8.06
2019-03-13T09:45:39.831Z,8.03
2019-03-13T09:46:39.751Z,8.06
2019-03-13T09:47:39.727Z,8.10
2019-03-13T09:48:39.892Z,8.02
2019-03-13T09:49:39.705Z,7.95
2019-03-13T09:50:39.664Z,7.88
2019-03-13T09:51:39.682Z,7.88
2019-03-13T09:52:39.656Z,7.85
2019-03-13T09:53:39.673Z,7.82
2019-03-13T09:54:39.675Z,7.84
2019-03-13T09:55:39.614Z,7.89
2019-03-13T09:56:39.628Z,7.96
2019-03-13T09:57:39.600Z,7.96
2019-03-13T09:58:39.590Z,8.02
2019-03-13T09:59:43.552Z,8.03
2019-03-13T10:00:39.559Z,7.99
2019-03-13T10:01:39.650Z,8.06
2019-03-13T10:02:39.567Z,8.10
2019-03-13T10:03:39.560Z,8.17
2019-03-13T10:04:39.541Z,8.13
2019-03-13T10:05:39.555Z,8.12
2019-03-13T10:06:39.519Z,8.12
2019-03-13T10:07:39.487Z,8.24
2019-03-13T10:08:39.599Z,8.21
2019-03-13T10:09:39.461Z,8.22
2019-03-13T10:10:39.457Z,8.25
2019-03-13T10:11:39.501Z,8.25
2019-03-13T10:12:39.432Z,8.28
2019-03-13T10:13:39.450Z,8.39
2019-03-13T10:14:39.410Z,8.40
2019-03-13T10:15:39.399Z,8.47
2019-03-13T10:16:39.524Z,8.43
2019-03-13T10:17:39.417Z,8.49
2019-03-13T10:18:39.368Z,8.63
2019-03-13T10:19:39.373Z,8.67
2019-03-13T10:20:39.423Z,8.61
2019-03-13T10:21:39.337Z,8.71
2019-03-13T10:22:39.354Z,8.63
2019-03-13T10:23:39.329Z,8.64
2019-03-13T10:24:39.304Z,8.55
2019-03-13T10:25:39.311Z,8.63
2019-03-13T10:26:39.279Z,8.79
2019-03-13T10:27:39.300Z,8.80
2019-03-13T10:28:39.261Z,8.96
2019-03-13T10:29:39.258Z,9.04
2019-03-13T10:30:39.253Z,9.00
2019-03-13T10:31:39.240Z,8.98
2019-03-13T10:32:39.221Z,9.20
2019-03-13T10:33:39.268Z,9.24
2019-03-13T10:34:39.254Z,9.23
2019-03-13T10:35:39.187Z,9.24
2019-03-13T10:36:39.187Z,9.26
2019-03-13T10:37:39.166Z,9.31
2019-03-13T10:38:39.175Z,9.41
2019-03-13T10:39:39.161Z,9.55
2019-03-13T10:40:39.185Z,9.67
2019-03-13T10:41:39.144Z,9.55
2019-03-13T10:42:39.106Z,9.34
2019-03-13T10:43:39.120Z,9.13
2019-03-13T10:44:39.099Z,9.06
2019-03-13T10:45:39.085Z,9.01
2019-03-13T10:46:39.065Z,8.88
2019-03-13T10:47:39.059Z,8.79
2019-03-13T10:48:39.077Z,8.86
2019-03-13T10:49:39.094Z,8.80
2019-03-13T10:50:39.022Z,8.82
2019-03-13T10:51:39.013Z,8.93
2019-03-13T10:52:39.011Z,8.83
2019-03-13T10:53:39.029Z,8.88
2019-03-13T10:54:38.987Z,9.04
2019-03-13T10:55:39.051Z,9.20
2019-03-13T10:56:38.968Z,9.38
2019-03-13T10:57:38.949Z,9.40
2019-03-13T10:58:38.935Z,9.56
2019-03-13T10:59:38.953Z,9.68
2019-03-13T11:00:38.945Z,9.63
2019-03-13T11:01:38.928Z,9.86
2019-03-13T11:02:39.117Z,9.86
2019-03-13T11:03:38.936Z,9.96
2019-03-13T11:04:38.969Z,10.16
2019-03-13T11:05:38.918Z,10.09
2019-03-13T11:06:38.925Z,10.18
2019-03-13T11:07:38.872Z,10.17
2019-03-13T11:08:38.860Z,10.22
2019-03-13T11:09:38.851Z,10.42
2019-03-13T11:10:38.866Z,10.49
2019-03-13T11:11:39.073Z,10.72
2019-03-13T11:12:38.811Z,10.75
2019-03-13T11:13:38.792Z,10.76
2019-03-13T11:14:38.840Z,10.95
2019-03-13T11:15:38.928Z,11.17
2019-03-13T11:16:38.777Z,11.46
2019-03-13T11:17:38.735Z,11.57
2019-03-13T11:18:38.723Z,11.67
2019-03-13T11:19:38.773Z,11.36
2019-03-13T11:20:38.762Z,11.02
2019-03-13T11:21:38.702Z,10.47
2019-03-13T11:22:38.695Z,10.24
2019-03-13T11:23:38.682Z,10.14
2019-03-13T11:24:38.657Z,10.07
2019-03-13T11:25:38.656Z,9.89
2019-03-13T11:26:38.663Z,9.80
2019-03-13T11:27:38.650Z,9.73
2019-03-13T11:28:38.626Z,9.71
2019-03-13T11:29:38.611Z,9.60
2019-03-13T11:30:38.673Z,9.56
2019-03-13T11:31:38.654Z,9.59
2019-03-13T11:32:38.601Z,9.59
2019-03-13T11:33:38.566Z,9.49
2019-03-13T11:34:38.681Z,9.42
2019-03-13T11:35:38.538Z,9.38
2019-03-13T11:36:38.610Z,9.30
2019-03-13T11:37:38.632Z,9.23
2019-03-13T11:38:38.509Z,9.15
2019-03-13T11:39:38.528Z,9.22
2019-03-13T11:40:38.485Z,9.15
2019-03-13T11:41:38.658Z,9.20
2019-03-13T11:42:38.465Z,9.35
2019-03-13T11:43:41.231Z,9.42
2019-03-13T11:44:38.476Z,9.53
2019-03-13T11:45:38.435Z,9.59
2019-03-13T11:46:38.429Z,9.41
2019-03-13T11:47:42.696Z,9.22
2019-03-13T11:48:38.399Z,9.26
2019-03-13T11:49:38.394Z,9.38
2019-03-13T11:50:38.460Z,9.44
2019-03-13T11:51:38.375Z,9.63
2019-03-13T11:52:38.405Z,9.88
2019-03-13T11:53:38.383Z,10.01
2019-03-13T11:54:38.416Z,10.11
2019-03-13T11:55:38.324Z,10.06
2019-03-13T11:56:38.387Z,10.17
2019-03-13T11:57:38.301Z,10.20
2019-03-13T11:58:38.315Z,10.16
2019-03-13T11:59:38.651Z,10.16
2019-03-13T12:00:38.277Z,10.16
2019-03-13T12:01:45.497Z,9.98
2019-03-13T12:02:39.247Z,9.88
2019-03-13T12:03:38.270Z,9.73
2019-03-13T12:04:38.320Z,9.74
2019-03-13T12:05:38.217Z,9.65
2019-03-13T12:06:38.207Z,9.60
2019-03-13T12:07:38.200Z,9.70
2019-03-13T12:08:38.243Z,9.60
2019-03-13T12:09:38.173Z,9.68
2019-03-13T12:10:38.172Z,9.59
2019-03-13T12:11:38.159Z,9.74
2019-03-13T12:12:38.219Z,9.74
2019-03-13T12:13:38.193Z,9.68
2019-03-13T12:14:38.119Z,9.42
2019-03-13T12:15:38.112Z,9.31
2019-03-13T12:16:38.099Z,9.23
2019-03-13T12:17:38.096Z,9.23
2019-03-13T12:18:38.081Z,9.27
2019-03-13T12:19:38.093Z,9.24
2019-03-13T12:20:38.065Z,9.22
2019-03-13T12:21:38.062Z,9.16
2019-03-13T12:22:38.043Z,9.22
2019-03-13T12:23:38.025Z,9.37
2019-03-13T12:24:38.043Z,9.37
2019-03-13T12:25:38.009Z,9.42
2019-03-13T12:26:38.023Z,9.80
2019-03-13T12:27:37.981Z,10.01
2019-03-13T12:28:37.968Z,10.16
2019-03-13T12:29:38.008Z,10.20
2019-03-13T12:30:38.039Z,10.25
2019-03-13T12:31:37.942Z,10.13
2019-03-13T12:32:37.932Z,10.22
2019-03-13T12:33:38.031Z,10.20
2019-03-13T12:34:37.929Z,10.24
2019-03-13T12:35:37.930Z,10.11
2019-03-13T12:36:37.886Z,9.83
2019-03-13T12:37:37.880Z,9.63
2019-03-13T12:38:37.877Z,9.55
2019-03-13T12:39:37.851Z,9.42
2019-03-13T12:40:37.873Z,9.34
2019-03-13T12:41:37.830Z,9.37
2019-03-13T12:42:37.843Z,9.45
2019-03-13T12:43:37.814Z,9.40
2019-03-13T12:44:37.799Z,9.41
2019-03-13T12:45:37.822Z,9.31
2019-03-13T12:46:37.858Z,9.24
2019-03-13T12:47:37.765Z,9.22
2019-03-13T12:48:37.873Z,9.16
2019-03-13T12:49:37.767Z,9.24
2019-03-13T12:50:37.773Z,9.23
2019-03-13T12:51:37.722Z,9.38
2019-03-13T12:52:37.739Z,9.53
2019-03-13T12:53:37.729Z,9.53
2019-03-13T12:54:37.703Z,9.56
2019-03-13T12:55:37.708Z,9.65
2019-03-13T12:56:37.720Z,9.77
2019-03-13T12:57:37.659Z,9.89
2019-03-13T12:58:37.819Z,10.10
2019-03-13T12:59:37.647Z,10.13
2019-03-13T13:00:37.685Z,10.16
2019-03-13T13:01:37.644Z,10.34
2019-03-13T13:02:37.723Z,10.44
2019-03-13T13:03:37.647Z,10.43
2019-03-13T13:04:37.592Z,10.54
2019-03-13T13:05:37.636Z,10.55
2019-03-13T13:06:37.680Z,10.38
2019-03-13T13:07:37.566Z,10.26
2019-03-13T13:08:37.559Z,10.24
2019-03-13T13:09:37.585Z,10.25
2019-03-13T13:10:37.606Z,10.18
2019-03-13T13:11:37.518Z,10.10
2019-03-13T13:12:37.627Z,10.10
2019-03-13T13:13:37.513Z,10.07
2019-03-13T13:14:37.477Z,10.22
2019-03-13T13:15:37.499Z,10.26
2019-03-13T13:16:37.480Z,10.35